createdAt,value
2023-03-26T00:01:36.472Z,100413.34
2023-03-26T00:04:07.516Z,100406.50
2023-03-26T00:06:39.974Z,100401.31
2023-03-26T00:09:09.446Z,100381.19
2023-03-26T00:11:39.287Z,100341.78
2023-03-26T00:14:09.583Z,100359.38
2023-03-26T00:16:38.839Z,100371.91
2023-03-26T00:19:05.548Z,100381.34
2023-03-26T00:21:32.289Z,100334.72
2023-03-26T00:24:10.023Z,100325.94
2023-03-26T00:26:42.659Z,100350.47
2023-03-26T00:29:10.402Z,100370.59
2023-03-26T00:31:39.917Z,100290.75
2023-03-26T00:34:10.680Z,100351.38
2023-03-26T00:36:42.288Z,100352.34
2023-03-26T00:39:10.167Z,100352.53
2023-03-26T00:41:37.382Z,100359.31
2023-03-26T00:44:04.199Z,100354.13
2023-03-26T00:46:31.706Z,100327.56
2023-03-26T00:48:59.923Z,100363.38
2023-03-26T00:51:28.808Z,100354.69
2023-03-26T00:53:56.500Z,100352.88
2023-03-26T00:56:26.008Z,100355.38
2023-03-26T00:58:52.738Z,100351.81
2023-03-26T01:01:27.972Z,100343.09
2023-03-26T01:04:07.466Z,100347.44
2023-03-26T01:06:39.157Z,100321.16
2023-03-26T01:09:17.488Z,100323.88
2023-03-26T01:11:44.567Z,100325.72
2023-03-26T01:14:16.327Z,100320.34
2023-03-26T01:16:46.090Z,100326.56
2023-03-26T01:19:22.892Z,100309.13
2023-03-26T01:21:49.610Z,100316.09
2023-03-26T01:24:18.427Z,100285.44
2023-03-26T01:26:50.577Z,100302.16
2023-03-26T01:29:37.642Z,100250.97
2023-03-26T01:32:21.248Z,100294.97
2023-03-26T01:35:14.180Z,100289.66
2023-03-26T01:37:53.058Z,100263.03
2023-03-26T01:40:42.878Z,100285.06
2023-03-26T01:43:33.469Z,100284.16
2023-03-26T01:46:05.372Z,100261.69
2023-03-26T01:48:36.222Z,100188.47
2023-03-26T01:51:03.792Z,100228.78
2023-03-26T01:53:34.712Z,100247.34
2023-03-26T01:56:26.368Z,100268.66
2023-03-26T01:59:14.425Z,100258.16
2023-03-26T02:02:05.000Z,100189.63
2023-03-26T02:04:42.164Z,100246.84
2023-03-26T02:07:34.611Z,100239.91
2023-03-26T02:10:10.519Z,100237.22
2023-03-26T02:12:41.402Z,100227.56
2023-03-26T02:15:08.729Z,100235.31
2023-03-26T02:17:36.206Z,100222.97
2023-03-26T02:20:06.063Z,100221.25
2023-03-26T02:22:40.912Z,100200.91
2023-03-26T02:25:10.020Z,100214.16
2023-03-26T02:27:38.840Z,100212.47
2023-03-26T02:30:10.800Z,100195.16
2023-03-26T02:32:38.905Z,100189.69
2023-03-26T02:35:06.880Z,100204.59
2023-03-26T02:37:36.073Z,100187.03
2023-03-26T02:40:05.106Z,100181.72
2023-03-26T02:42:31.843Z,100170.16
2023-03-26T02:44:58.456Z,100179.78
2023-03-26T02:47:25.186Z,100169.97
2023-03-26T02:49:54.193Z,100183.16
2023-03-26T02:52:23.286Z,100175.28
2023-03-26T02:54:53.579Z,100175.97
2023-03-26T02:57:22.553Z,100189.97
2023-03-26T02:59:50.545Z,100182.97
2023-03-26T03:02:18.343Z,100167.03
2023-03-26T03:04:47.706Z,100154.84
2023-03-26T03:07:16.990Z,100174.91
2023-03-26T03:09:50.813Z,100153.06
2023-03-26T03:12:17.434Z,100171.53
2023-03-26T03:14:47.070Z,100135.72
2023-03-26T03:17:16.273Z,100150.59
2023-03-26T03:19:45.369Z,100151.44
2023-03-26T03:22:12.127Z,100126.69
2023-03-26T03:24:39.888Z,100157.44
2023-03-26T03:27:06.506Z,100146.25
2023-03-26T03:29:36.105Z,100137.56
2023-03-26T03:32:02.664Z,100123.28
2023-03-26T03:34:29.308Z,100130.44
2023-03-26T03:36:55.972Z,100145.38
2023-03-26T03:39:22.568Z,100152.22
2023-03-26T03:41:50.118Z,100127.88
2023-03-26T03:44:19.129Z,100137.47
2023-03-26T03:46:45.928Z,100099.63
2023-03-26T03:49:12.624Z,100067.97
2023-03-26T03:51:39.225Z,100130.31
2023-03-26T03:54:05.988Z,100126.00
2023-03-26T03:56:32.716Z,100122.47
2023-03-26T03:58:59.699Z,100093.69
2023-03-26T04:01:26.319Z,100117.47
2023-03-26T04:03:55.524Z,100120.97
2023-03-26T04:06:25.297Z,100110.50
2023-03-26T04:08:52.649Z,100116.81
2023-03-26T04:11:19.285Z,100090.63
2023-03-26T04:13:45.904Z,100107.44
2023-03-26T04:16:13.152Z,100119.66
2023-03-26T04:18:42.086Z,100102.94
2023-03-26T04:21:09.056Z,100125.81
2023-03-26T04:23:38.109Z,100116.13
2023-03-26T04:26:10.553Z,100127.47
2023-03-26T04:28:48.056Z,100072.16
2023-03-26T04:31:18.744Z,100105.75
2023-03-26T04:33:47.301Z,100119.06
2023-03-26T04:36:16.076Z,100114.75
2023-03-26T04:38:45.844Z,100111.22
2023-03-26T04:41:13.525Z,100107.78
2023-03-26T04:43:47.422Z,100110.34
2023-03-26T04:46:14.575Z,100112.16
2023-03-26T04:48:43.619Z,100106.75
2023-03-26T04:51:18.426Z,100112.94
2023-03-26T04:53:54.237Z,100083.13
2023-03-26T04:56:39.189Z,100094.53
2023-03-26T04:59:06.270Z,100121.53
2023-03-26T05:01:33.227Z,100114.47
2023-03-26T05:03:59.922Z,100127.25
2023-03-26T05:06:34.458Z,100127.94
2023-03-26T05:09:02.255Z,100139.00
2023-03-26T05:11:28.840Z,100116.25
2023-03-26T05:13:57.677Z,100132.72
2023-03-26T05:16:27.041Z,100122.31
2023-03-26T05:18:54.121Z,100126.69
2023-03-26T05:21:20.996Z,100122.81
2023-03-26T05:23:47.595Z,100119.09
2023-03-26T05:26:14.901Z,100153.16
2023-03-26T05:28:41.606Z,100121.53
2023-03-26T05:31:11.093Z,100150.28
2023-03-26T05:33:37.863Z,100112.44
2023-03-26T05:36:08.040Z,100140.53
2023-03-26T05:38:37.126Z,100132.66
2023-03-26T05:41:06.312Z,100151.94
2023-03-26T05:43:33.850Z,100153.63
2023-03-26T05:46:00.614Z,100164.03
2023-03-26T05:48:30.108Z,100139.00
2023-03-26T05:50:58.128Z,100153.16
2023-03-26T05:53:29.467Z,100147.94
2023-03-26T05:55:59.525Z,100071.38
2023-03-26T05:58:27.454Z,100144.31
2023-03-26T06:01:16.817Z,100141.53
2023-03-26T06:03:45.526Z,100150.78
2023-03-26T06:06:15.682Z,100149.81
2023-03-26T06:08:48.901Z,100160.97
2023-03-26T06:11:30.375Z,100164.41
2023-03-26T06:13:57.056Z,100167.75
2023-03-26T06:16:27.133Z,100167.44
2023-03-26T06:18:56.682Z,100174.25
2023-03-26T06:21:27.090Z,100175.00
2023-03-26T06:23:54.063Z,100164.22
2023-03-26T06:26:23.070Z,100179.13
2023-03-26T06:28:49.819Z,100183.41
2023-03-26T06:31:17.470Z,100177.09
2023-03-26T06:33:44.180Z,100169.28
2023-03-26T06:36:11.014Z,100185.97
2023-03-26T06:38:37.728Z,100191.91
2023-03-26T06:41:07.660Z,100197.00
2023-03-26T06:43:35.633Z,100192.50
2023-03-26T06:46:03.210Z,100188.84
2023-03-26T06:48:29.872Z,100212.28
2023-03-26T06:50:56.506Z,100192.66
2023-03-26T06:53:27.996Z,100222.47
2023-03-26T06:55:54.687Z,100226.75
2023-03-26T06:58:22.416Z,100143.00
2023-03-26T07:00:54.123Z,100192.47
2023-03-26T07:03:23.709Z,100229.66
2023-03-26T07:05:50.420Z,100240.25
2023-03-26T07:08:17.168Z,100225.53
2023-03-26T07:10:44.127Z,100258.84
2023-03-26T07:13:11.007Z,100248.63
2023-03-26T07:15:37.636Z,100232.81
2023-03-26T07:18:04.763Z,100255.13
2023-03-26T07:20:31.759Z,100261.22
2023-03-26T07:22:58.754Z,100228.78
2023-03-26T07:25:26.015Z,100246.19
2023-03-26T07:28:17.964Z,100277.81
2023-03-26T07:31:06.063Z,100281.34
2023-03-26T07:33:51.475Z,100285.69
2023-03-26T07:36:18.046Z,100287.56
2023-03-26T07:38:56.682Z,100291.09
2023-03-26T07:41:23.304Z,100287.63
2023-03-26T07:43:57.691Z,100301.59
2023-03-26T07:46:34.131Z,100283.13
2023-03-26T07:49:02.007Z,100286.56
2023-03-26T07:51:29.185Z,100285.78
2023-03-26T07:53:56.339Z,100299.97
2023-03-26T07:56:38.214Z,100263.81
2023-03-26T07:59:26.081Z,100315.16
2023-03-26T08:02:27.519Z,100312.63
2023-03-26T08:04:54.281Z,100320.53
2023-03-26T08:07:33.355Z,100323.25
2023-03-26T08:10:02.959Z,100325.91
2023-03-26T08:12:56.281Z,100320.84
2023-03-26T08:15:25.683Z,100325.22
2023-03-26T08:18:27.500Z,100327.13
2023-03-26T08:21:00.891Z,100320.84
2023-03-26T08:24:02.062Z,100341.00
2023-03-26T08:26:34.615Z,100340.78
2023-03-26T08:29:32.831Z,100315.09
2023-03-26T08:32:00.118Z,100348.78
2023-03-26T08:34:26.805Z,100340.50
2023-03-26T08:36:53.518Z,100335.72
2023-03-26T08:39:22.529Z,100364.66
2023-03-26T08:42:07.838Z,100372.31
2023-03-26T08:44:49.716Z,100369.56
2023-03-26T08:47:59.367Z,100385.13
2023-03-26T08:50:59.548Z,100375.56
2023-03-26T08:53:41.248Z,100383.50
2023-03-26T08:56:20.861Z,100363.22
2023-03-26T08:58:57.119Z,100393.44
2023-03-26T09:01:59.896Z,100411.97
2023-03-26T09:04:51.356Z,100407.00
2023-03-26T09:07:32.344Z,100419.28
2023-03-26T09:10:17.355Z,100419.53
2023-03-26T09:13:15.339Z,100432.81
2023-03-26T09:15:53.346Z,100430.56
2023-03-26T09:18:40.632Z,100436.97
2023-03-26T09:21:32.028Z,100441.59
2023-03-26T09:24:25.516Z,100445.41
2023-03-26T09:27:07.350Z,100454.38
2023-03-26T09:29:49.128Z,100453.66
2023-03-26T09:32:46.336Z,100463.47
2023-03-26T09:35:14.891Z,100443.38
2023-03-26T09:37:56.805Z,100461.97
2023-03-26T09:40:53.212Z,100482.44
2023-03-26T09:43:38.849Z,100487.00
2023-03-26T09:46:32.825Z,100494.28
2023-03-26T09:49:26.868Z,100500.56
2023-03-26T09:52:35.536Z,100506.69
2023-03-26T09:55:34.786Z,100504.25
2023-03-26T09:58:13.714Z,100514.69
2023-03-26T10:01:15.712Z,100522.63
2023-03-26T10:04:21.293Z,100533.06
2023-03-26T10:07:22.056Z,100537.56
2023-03-26T10:10:07.690Z,100537.91
2023-03-26T10:12:39.635Z,100550.31
2023-03-26T10:15:23.971Z,100552.31
2023-03-26T10:18:27.137Z,100554.25
2023-03-26T10:21:24.911Z,100560.56
2023-03-26T10:24:13.930Z,100561.59
2023-03-26T10:27:15.808Z,100561.53
2023-03-26T10:29:48.573Z,100573.84
2023-03-26T10:32:27.452Z,100585.06
2023-03-26T10:35:12.922Z,100585.97
2023-03-26T10:37:57.654Z,100595.56
2023-03-26T10:40:55.231Z,100600.78
2023-03-26T10:44:01.274Z,100606.06
2023-03-26T10:47:05.919Z,100608.81
2023-03-26T10:49:59.941Z,100618.50
2023-03-26T10:52:37.891Z,100615.06
2023-03-26T10:55:19.182Z,100592.84
2023-03-26T10:57:50.058Z,100619.44
2023-03-26T11:00:25.139Z,100636.28
2023-03-26T11:03:29.009Z,100639.09
2023-03-26T11:06:26.682Z,100618.88
2023-03-26T11:09:10.229Z,100656.03
2023-03-26T11:11:45.155Z,100646.44
2023-03-26T11:14:47.815Z,100665.13
2023-03-26T11:17:41.229Z,100668.00
2023-03-26T11:20:27.565Z,100671.56
2023-03-26T11:23:27.599Z,100676.97
2023-03-26T11:25:54.171Z,100686.69
2023-03-26T11:28:36.175Z,100685.59
2023-03-26T11:31:17.847Z,100701.94
2023-03-26T11:33:51.207Z,100685.41
2023-03-26T11:36:24.754Z,100698.78
2023-03-26T11:38:54.042Z,100704.03
2023-03-26T11:41:24.285Z,100698.78
2023-03-26T11:44:05.605Z,100691.53
2023-03-26T11:46:39.040Z,100671.34
2023-03-26T11:49:11.319Z,100700.66
2023-03-26T11:51:39.857Z,100721.16
2023-03-26T11:54:11.734Z,100697.41
2023-03-26T11:57:05.618Z,100719.47
2023-03-26T11:59:56.473Z,100731.91
2023-03-26T12:02:38.047Z,100732.94
2023-03-26T12:05:12.125Z,100744.53
2023-03-26T12:07:55.942Z,100727.00
2023-03-26T12:10:39.048Z,100756.25
2023-03-26T12:13:33.865Z,100759.94
2023-03-26T12:16:16.619Z,100769.63
2023-03-26T12:18:45.883Z,100769.44
2023-03-26T12:21:22.298Z,100782.31
2023-03-26T12:23:58.057Z,100787.59
2023-03-26T12:26:42.881Z,100786.72
2023-03-26T12:29:15.430Z,100793.72
2023-03-26T12:31:55.117Z,100783.59
2023-03-26T12:34:31.787Z,100793.69
2023-03-26T12:37:01.856Z,100798.31
2023-03-26T12:40:10.040Z,100794.75
2023-03-26T12:44:48.982Z,100794.47
2023-03-26T12:45:28.779Z,100781.31
2023-03-26T12:48:04.295Z,100791.75
2023-03-26T12:50:59.702Z,100801.63
2023-03-26T12:53:29.346Z,100797.38
2023-03-26T12:56:10.264Z,100799.38
2023-03-26T12:58:51.468Z,100805.06
2023-03-26T13:01:36.502Z,100808.91
2023-03-26T13:04:15.193Z,100818.75
2023-03-26T13:06:58.998Z,100825.00
2023-03-26T13:09:57.246Z,100831.00
2023-03-26T13:12:57.083Z,100833.41
2023-03-26T13:15:37.731Z,100826.91
2023-03-26T13:18:16.426Z,100838.00
2023-03-26T13:20:56.017Z,100847.41
2023-03-26T13:23:51.390Z,100855.00
2023-03-26T13:26:53.436Z,100855.44
2023-03-26T13:29:38.214Z,100855.81
2023-03-26T13:32:11.003Z,100874.97
2023-03-26T13:35:12.774Z,100890.34
2023-03-26T13:37:45.873Z,100895.34
2023-03-26T13:40:46.823Z,100883.59
2023-03-26T13:43:25.044Z,100907.47
2023-03-26T13:46:29.346Z,100914.59
2023-03-26T13:49:01.950Z,100928.75
2023-03-26T13:51:43.768Z,100902.50
2023-03-26T13:54:44.202Z,100937.19
2023-03-26T13:57:33.273Z,100938.25
2023-03-26T13:59:59.838Z,100943.41
2023-03-26T14:02:36.149Z,100956.81
2023-03-26T14:05:30.738Z,100977.19
2023-03-26T14:08:16.371Z,100969.28
2023-03-26T14:10:54.359Z,100989.47
2023-03-26T14:13:33.708Z,100993.06
2023-03-26T14:16:25.749Z,101002.13
2023-03-26T14:18:56.792Z,101012.44
2023-03-26T14:21:34.212Z,101013.13
2023-03-26T14:24:11.905Z,101017.00
2023-03-26T14:26:50.081Z,101025.63
2023-03-26T14:29:57.690Z,101030.75
2023-03-26T14:32:30.583Z,101037.47
2023-03-26T14:35:26.153Z,101050.44
2023-03-26T14:38:04.977Z,101059.84
2023-03-26T14:40:58.580Z,101021.47
2023-03-26T14:43:49.098Z,101071.59
2023-03-26T14:46:43.603Z,101066.66
2023-03-26T14:49:32.249Z,101087.59
2023-03-26T14:52:07.314Z,101074.22
2023-03-26T14:54:41.499Z,101100.59
2023-03-26T14:57:53.387Z,101098.00
2023-03-26T15:00:20.251Z,101106.53
2023-03-26T15:03:34.711Z,101104.66
2023-03-26T15:06:16.091Z,101117.53
2023-03-26T15:09:12.393Z,101119.13
2023-03-26T15:11:42.006Z,101126.72
2023-03-26T15:15:00.083Z,101131.41
2023-03-26T15:17:50.900Z,101155.47
2023-03-26T15:20:32.976Z,101164.75
2023-03-26T15:23:27.696Z,101161.31
2023-03-26T15:26:16.219Z,101176.97
2023-03-26T15:28:48.749Z,101173.50
2023-03-26T15:31:31.136Z,101178.00
2023-03-26T15:34:51.829Z,101179.72
2023-03-26T15:37:59.597Z,101193.34
2023-03-26T15:40:36.432Z,101200.25
2023-03-26T15:43:03.062Z,101215.84
2023-03-26T15:45:36.937Z,101224.34
2023-03-26T15:48:12.906Z,101237.97
2023-03-26T15:51:15.492Z,101214.00
2023-03-26T15:54:00.595Z,101251.75
2023-03-26T15:56:58.063Z,101264.81
2023-03-26T15:59:43.275Z,101269.84
2023-03-26T16:02:16.756Z,101262.16
2023-03-26T16:04:54.888Z,101284.81
2023-03-26T16:07:24.900Z,101292.47
2023-03-26T16:09:51.500Z,101296.81
2023-03-26T16:12:29.027Z,101290.00
2023-03-26T16:15:09.568Z,101295.13
2023-03-26T16:18:11.883Z,101298.53
2023-03-26T16:20:57.190Z,101315.91
2023-03-26T16:23:34.445Z,101317.75
2023-03-26T16:26:48.834Z,101312.06
2023-03-26T16:29:24.026Z,101323.56
2023-03-26T16:31:59.680Z,101330.59
2023-03-26T16:35:04.894Z,101337.75
2023-03-26T16:37:50.671Z,101355.16
2023-03-26T16:40:20.434Z,101362.13
2023-03-26T16:43:18.824Z,101368.34
2023-03-26T16:46:04.425Z,101381.25
2023-03-26T16:48:37.228Z,101382.72
2023-03-26T16:51:17.202Z,101389.75
2023-03-26T16:54:06.294Z,101414.03
2023-03-26T16:57:01.073Z,101424.13
2023-03-26T17:00:05.792Z,101421.72
2023-03-26T17:02:52.760Z,101446.28
2023-03-26T17:05:34.612Z,101457.47
2023-03-26T17:08:36.434Z,101445.59
2023-03-26T17:11:04.135Z,101467.31
2023-03-26T17:13:52.907Z,101434.09
2023-03-26T17:16:29.089Z,101477.78
2023-03-26T17:19:30.952Z,101490.03
2023-03-26T17:22:11.214Z,101486.47
2023-03-26T17:24:54.469Z,101490.53
2023-03-26T17:27:29.972Z,101475.19
2023-03-26T17:30:08.195Z,101513.91
2023-03-26T17:33:02.914Z,101526.91
2023-03-26T17:35:46.658Z,101532.84
2023-03-26T17:38:25.764Z,101536.94
2023-03-26T17:41:00.674Z,101551.47
2023-03-26T17:43:50.137Z,101539.59
2023-03-26T17:46:25.754Z,101559.59
2023-03-26T17:49:27.270Z,101562.06
2023-03-26T17:52:02.082Z,101571.38
2023-03-26T17:54:31.412Z,101567.66
2023-03-26T17:57:05.886Z,101575.28
2023-03-26T17:59:33.218Z,101584.69
2023-03-26T18:02:03.802Z,101585.69
2023-03-26T18:04:45.841Z,101602.78
2023-03-26T18:07:33.812Z,101609.63
2023-03-26T18:10:12.972Z,101623.16
2023-03-26T18:13:18.384Z,101602.88
2023-03-26T18:16:12.645Z,101632.88
2023-03-26T18:18:57.701Z,101617.47
2023-03-26T18:21:29.322Z,101645.91
2023-03-26T18:23:59.613Z,101632.22
2023-03-26T18:26:38.128Z,101634.13
2023-03-26T18:29:24.112Z,101653.53
2023-03-26T18:32:22.133Z,101655.66
2023-03-26T18:35:01.055Z,101662.22
2023-03-26T18:37:36.270Z,101658.16
2023-03-26T18:40:11.796Z,101670.47
2023-03-26T18:42:39.393Z,101671.19
2023-03-26T18:45:31.552Z,101684.16
2023-03-26T18:48:01.529Z,101688.53
2023-03-26T18:50:40.105Z,101701.47
2023-03-26T18:53:14.576Z,101709.06
2023-03-26T18:55:44.279Z,101722.03
2023-03-26T18:58:30.096Z,101728.75
2023-03-26T19:01:00.727Z,101718.66
2023-03-26T19:03:35.615Z,101732.41
2023-03-26T19:06:08.430Z,101750.84
2023-03-26T19:08:38.941Z,101745.31
2023-03-26T19:11:10.938Z,101763.69
2023-03-26T19:13:43.062Z,101768.97
2023-03-26T19:16:25.795Z,101763.69
2023-03-26T19:18:52.995Z,101772.56
2023-03-26T19:21:23.335Z,101739.50
2023-03-26T19:23:52.412Z,101771.66
2023-03-26T19:26:19.396Z,101777.44
2023-03-26T19:28:50.891Z,101792.41
2023-03-26T19:31:24.499Z,101782.72
2023-03-26T19:34:14.230Z,101794.00
2023-03-26T19:36:58.447Z,101801.59
2023-03-26T19:39:45.398Z,101797.13
2023-03-26T19:42:24.209Z,101811.59
2023-03-26T19:44:53.588Z,101812.41
2023-03-26T19:47:45.476Z,101796.09
2023-03-26T19:50:30.472Z,101822.84
2023-03-26T19:53:24.250Z,101814.78
2023-03-26T19:56:04.444Z,101822.66
2023-03-26T19:58:35.376Z,101820.41
2023-03-26T20:01:05.752Z,101842.69
2023-03-26T20:03:47.058Z,101860.38
2023-03-26T20:06:16.886Z,101862.19
2023-03-26T20:08:46.604Z,101859.69
2023-03-26T20:11:21.157Z,101878.28
2023-03-26T20:13:52.376Z,101882.56
2023-03-26T20:16:30.393Z,101868.97
2023-03-26T20:19:02.520Z,101888.66
2023-03-26T20:21:32.345Z,101885.06
2023-03-26T20:23:59.262Z,101906.00
2023-03-26T20:26:26.056Z,101904.19
2023-03-26T20:28:53.870Z,101899.25
2023-03-26T20:31:26.819Z,101924.41
2023-03-26T20:33:54.651Z,101921.81
2023-03-26T20:36:34.077Z,101919.38
2023-03-26T20:39:06.141Z,101930.66
2023-03-26T20:41:34.189Z,101940.13
2023-03-26T20:44:03.678Z,101941.09
2023-03-26T20:46:31.907Z,101936.88
2023-03-26T20:48:59.996Z,101946.97
2023-03-26T20:51:28.782Z,101952.09
2023-03-26T20:53:56.440Z,101931.50
2023-03-26T20:56:23.676Z,101943.81
2023-03-26T20:59:03.526Z,101938.75
2023-03-26T21:01:38.075Z,101951.28
2023-03-26T21:04:07.377Z,101954.06
2023-03-26T21:06:34.052Z,101962.81
2023-03-26T21:09:04.291Z,101955.09
2023-03-26T21:12:00.539Z,101976.41
2023-03-26T21:14:44.356Z,101935.41
2023-03-26T21:17:18.025Z,101975.50
2023-03-26T21:19:45.997Z,101974.59
2023-03-26T21:22:33.566Z,101976.09
2023-03-26T21:25:27.378Z,101992.94
2023-03-26T21:28:13.040Z,101997.41
2023-03-26T21:30:40.098Z,102001.81
2023-03-26T21:33:07.325Z,102006.16
2023-03-26T21:35:34.872Z,101978.59
2023-03-26T21:38:04.575Z,101989.47
2023-03-26T21:40:34.329Z,102001.72
2023-03-26T21:43:01.281Z,101993.94
2023-03-26T21:45:28.325Z,102013.53
2023-03-26T21:47:55.476Z,101995.63
2023-03-26T21:50:23.689Z,102044.94
2023-03-26T21:52:53.859Z,102034.16
2023-03-26T21:55:22.915Z,102032.59
2023-03-26T21:58:11.180Z,102051.84
2023-03-26T22:00:50.635Z,102050.38
2023-03-26T22:03:45.576Z,102079.78
2023-03-26T22:06:17.725Z,102085.06
2023-03-26T22:08:44.548Z,102055.28
2023-03-26T22:11:12.342Z,102085.38
2023-03-26T22:13:42.303Z,102087.97
2023-03-26T22:16:10.757Z,102090.63
2023-03-26T22:18:39.824Z,102102.69
2023-03-26T22:21:07.152Z,102087.44
2023-03-26T22:23:38.138Z,102094.19
2023-03-26T22:26:06.012Z,102100.31
2023-03-26T22:28:35.517Z,102093.13
2023-03-26T22:31:09.195Z,102107.56
2023-03-26T22:33:36.210Z,102112.84
2023-03-26T22:36:02.925Z,102114.72
2023-03-26T22:38:29.625Z,102104.25
2023-03-26T22:40:57.767Z,102134.88
2023-03-26T22:43:24.776Z,102084.84
2023-03-26T22:45:53.777Z,102127.91
2023-03-26T22:48:22.503Z,102131.47
2023-03-26T22:51:04.860Z,102139.06
2023-03-26T22:53:34.548Z,102145.75
2023-03-26T22:56:01.185Z,102159.22
2023-03-26T22:58:28.628Z,102152.94
2023-03-26T23:01:17.958Z,102152.75
2023-03-26T23:03:44.975Z,102160.22
2023-03-26T23:06:12.318Z,102125.94
2023-03-26T23:08:40.165Z,102134.41
2023-03-26T23:11:21.993Z,102165.50
2023-03-26T23:13:49.116Z,102175.06
2023-03-26T23:16:17.131Z,102175.66
2023-03-26T23:18:44.309Z,102170.38
2023-03-26T23:21:19.934Z,102194.63
2023-03-26T23:23:49.951Z,102186.75
2023-03-26T23:26:16.866Z,102178.84
2023-03-26T23:28:44.329Z,102195.13
2023-03-26T23:31:12.392Z,102179.75
2023-03-26T23:33:46.075Z,102186.75
2023-03-26T23:36:17.760Z,102205.88
2023-03-26T23:38:49.023Z,102207.56
2023-03-26T23:41:18.282Z,102226.22
2023-03-26T23:43:54.521Z,102235.59
2023-03-26T23:46:30.960Z,102239.28
2023-03-26T23:49:00.174Z,102242.59
2023-03-26T23:51:30.344Z,102228.81
2023-03-26T23:54:00.004Z,102251.94
2023-03-26T23:56:30.050Z,102241.28
2023-03-26T23:58:56.954Z,102233.19
